createdAt,value
2018-08-16T00:00:36.942Z,17.10
2018-08-16T00:03:05.987Z,17.00
2018-08-16T00:05:34.454Z,16.90
2018-08-16T00:08:03.105Z,16.90
2018-08-16T00:10:31.451Z,16.90
2018-08-16T00:12:59.911Z,16.90
2018-08-16T00:15:28.700Z,17.00
2018-08-16T00:17:57.125Z,16.90
2018-08-16T00:20:25.425Z,17.00
2018-08-16T00:22:55.118Z,16.90
2018-08-16T00:25:23.311Z,16.90
2018-08-16T00:27:51.782Z,16.80
2018-08-16T00:30:20.723Z,16.80
2018-08-16T00:32:49.173Z,16.80
2018-08-16T00:35:17.423Z,16.80
2018-08-16T00:37:45.665Z,16.60
2018-08-16T00:40:15.226Z,16.50
2018-08-16T00:42:43.494Z,16.50
2018-08-16T00:45:12.158Z,16.50
2018-08-16T00:47:41.072Z,16.40
2018-08-16T00:50:11.239Z,16.40
2018-08-16T00:52:39.701Z,16.40
2018-08-16T00:55:09.251Z,16.40
2018-08-16T00:57:37.954Z,16.30
2018-08-16T01:00:08.029Z,16.30
2018-08-16T01:02:36.237Z,16.20
2018-08-16T01:05:04.941Z,16.20
2018-08-16T01:07:33.240Z,16.20
2018-08-16T01:10:01.527Z,16.20
2018-08-16T01:12:29.781Z,16.20
2018-08-16T01:14:58.109Z,16.20
2018-08-16T01:17:27.718Z,16.20
2018-08-16T01:19:56.104Z,16.20
2018-08-16T01:22:24.522Z,16.20
2018-08-16T01:24:53.025Z,16.10
2018-08-16T01:27:21.443Z,16.10
2018-08-16T01:29:50.101Z,16.00
2018-08-16T01:32:18.401Z,16.00
2018-08-16T01:34:46.617Z,16.00
2018-08-16T01:37:15.384Z,16.00
2018-08-16T01:39:51.269Z,16.00
2018-08-16T01:42:19.511Z,15.90
2018-08-16T01:44:47.713Z,15.90
2018-08-16T01:47:15.864Z,15.80
2018-08-16T01:49:44.065Z,15.70
2018-08-16T01:52:12.203Z,15.70
2018-08-16T01:54:40.363Z,15.60
2018-08-16T01:57:08.562Z,15.50
2018-08-16T01:59:36.795Z,15.50
2018-08-16T02:02:05.026Z,15.50
2018-08-16T02:04:33.214Z,15.50
2018-08-16T02:07:01.349Z,15.50
2018-08-16T02:09:29.561Z,15.40
2018-08-16T02:11:57.736Z,15.40
2018-08-16T02:14:26.013Z,15.40
2018-08-16T02:16:54.198Z,15.30
2018-08-16T02:19:22.360Z,15.30
2018-08-16T02:21:50.517Z,15.30
2018-08-16T02:24:18.648Z,15.20
2018-08-16T02:26:46.795Z,15.20
2018-08-16T02:29:14.955Z,15.10
2018-08-16T02:31:43.137Z,15.10
2018-08-16T02:34:11.279Z,15.10
2018-08-16T02:36:39.466Z,15.10
2018-08-16T02:39:08.824Z,15.10
2018-08-16T02:41:37.327Z,15.10
2018-08-16T02:44:05.699Z,15.10
2018-08-16T02:46:33.826Z,15.00
2018-08-16T02:49:01.985Z,15.00
2018-08-16T02:51:30.183Z,15.00
2018-08-16T02:53:59.281Z,15.00
2018-08-16T02:56:27.806Z,15.00
2018-08-16T02:58:56.000Z,14.90
2018-08-16T03:01:24.185Z,14.90
2018-08-16T03:03:52.460Z,14.80
2018-08-16T03:06:20.624Z,14.90
2018-08-16T03:08:48.833Z,14.90
2018-08-16T03:11:17.034Z,14.90
2018-08-16T03:13:45.199Z,14.90
2018-08-16T03:16:13.309Z,14.80
2018-08-16T03:18:41.502Z,14.80
2018-08-16T03:21:09.651Z,14.80
2018-08-16T03:23:37.800Z,14.70
2018-08-16T03:26:06.073Z,14.80
2018-08-16T03:28:34.237Z,14.70
2018-08-16T03:31:02.381Z,14.70
2018-08-16T03:33:30.622Z,14.60
2018-08-16T03:35:58.753Z,14.60
2018-08-16T03:38:27.036Z,14.60
2018-08-16T03:40:55.200Z,14.60
2018-08-16T03:43:23.472Z,14.50
2018-08-16T03:45:51.667Z,14.50
2018-08-16T03:48:19.818Z,14.50
2018-08-16T03:50:48.049Z,14.50
2018-08-16T03:53:16.201Z,14.50
2018-08-16T03:55:44.369Z,14.60
2018-08-16T03:58:12.493Z,14.50
2018-08-16T04:00:40.661Z,14.50
2018-08-16T04:03:09.018Z,14.50
2018-08-16T04:05:37.199Z,14.50
2018-08-16T04:08:05.378Z,14.40
2018-08-16T04:10:33.692Z,14.40
2018-08-16T04:13:01.831Z,14.40
2018-08-16T04:15:29.997Z,14.40
2018-08-16T04:17:58.121Z,14.40
2018-08-16T04:20:26.269Z,14.40
2018-08-16T04:22:54.398Z,14.40
2018-08-16T04:25:22.541Z,14.30
2018-08-16T04:27:50.674Z,14.40
2018-08-16T04:30:18.907Z,14.40
2018-08-16T04:32:47.023Z,14.30
2018-08-16T04:35:15.225Z,14.30
2018-08-16T04:37:43.385Z,14.20
2018-08-16T04:40:11.563Z,14.10
2018-08-16T04:42:39.830Z,14.20
2018-08-16T04:45:08.571Z,14.20
2018-08-16T04:47:36.815Z,14.30
2018-08-16T04:50:07.450Z,14.30
2018-08-16T04:52:35.713Z,14.30
2018-08-16T04:55:04.633Z,14.30
2018-08-16T04:57:32.805Z,14.40
2018-08-16T05:00:00.965Z,14.40
2018-08-16T05:02:29.168Z,14.40
2018-08-16T05:04:57.328Z,14.50
2018-08-16T05:07:25.514Z,14.50
2018-08-16T05:09:53.725Z,14.70
2018-08-16T05:12:21.855Z,14.90
2018-08-16T05:14:50.030Z,15.20
2018-08-16T05:17:18.193Z,15.40
2018-08-16T05:19:47.353Z,15.60
2018-08-16T05:22:15.502Z,15.90
2018-08-16T05:24:43.644Z,16.10
2018-08-16T05:27:11.900Z,16.30
2018-08-16T05:29:40.146Z,16.40
2018-08-16T05:32:09.148Z,16.60
2018-08-16T05:34:37.477Z,16.80
2018-08-16T05:37:05.755Z,16.70
2018-08-16T05:39:33.906Z,16.90
2018-08-16T05:42:02.230Z,17.20
2018-08-16T05:44:30.829Z,17.50
2018-08-16T05:46:59.133Z,17.90
2018-08-16T05:49:27.494Z,18.50
2018-08-16T05:51:55.727Z,18.50
2018-08-16T05:54:23.994Z,18.60
2018-08-16T05:56:52.288Z,18.60
2018-08-16T05:59:20.558Z,18.70
2018-08-16T06:01:48.859Z,18.80
2018-08-16T06:04:17.333Z,18.90
2018-08-16T06:06:45.809Z,19.00
2018-08-16T06:09:14.071Z,19.00
2018-08-16T06:11:42.350Z,19.10
2018-08-16T06:14:11.112Z,19.20
2018-08-16T06:16:39.518Z,19.00
2018-08-16T06:19:08.709Z,19.00
2018-08-16T06:21:37.125Z,19.00
2018-08-16T06:24:05.723Z,19.10
2018-08-16T06:26:34.639Z,19.10
2018-08-16T06:29:04.653Z,19.10
2018-08-16T06:31:33.159Z,19.10
2018-08-16T06:34:01.477Z,19.10
2018-08-16T06:36:29.741Z,19.30
2018-08-16T06:38:58.027Z,19.40
2018-08-16T06:41:27.026Z,19.40
2018-08-16T06:43:55.284Z,19.30
2018-08-16T06:46:24.497Z,19.30
2018-08-16T06:48:52.806Z,19.60
2018-08-16T06:51:21.084Z,19.60
2018-08-16T06:53:49.375Z,19.50
2018-08-16T06:56:17.582Z,19.90
2018-08-16T06:58:45.966Z,20.00
2018-08-16T07:01:14.301Z,20.10
2018-08-16T07:03:43.217Z,20.30
2018-08-16T07:06:11.463Z,20.10
2018-08-16T07:08:39.748Z,20.30
2018-08-16T07:11:08.321Z,20.60
2018-08-16T07:13:36.755Z,20.50
2018-08-16T07:16:05.100Z,20.80
2018-08-16T07:18:33.300Z,21.00
2018-08-16T07:21:01.570Z,21.10
2018-08-16T07:23:31.047Z,21.20
2018-08-16T07:25:59.296Z,21.60
2018-08-16T07:28:27.549Z,21.90
2018-08-16T07:30:55.953Z,22.20
2018-08-16T07:33:24.560Z,22.50
2018-08-16T07:38:33.555Z,22.70
2018-08-16T07:41:01.780Z,22.90
2018-08-16T07:43:30.209Z,23.30
2018-08-16T07:45:58.518Z,23.30
2018-08-16T07:48:26.818Z,23.30
2018-08-16T07:50:54.979Z,23.40
2018-08-16T07:53:23.149Z,23.40
2018-08-16T07:55:51.336Z,23.60
2018-08-16T07:58:19.616Z,23.70
2018-08-16T08:00:47.797Z,23.90
2018-08-16T08:03:15.962Z,23.80
2018-08-16T08:05:44.129Z,23.50
2018-08-16T08:08:12.260Z,23.70
2018-08-16T08:10:40.468Z,24.20
2018-08-16T08:13:08.594Z,24.40
2018-08-16T08:15:36.942Z,24.60
2018-08-16T08:18:05.114Z,25.00
2018-08-16T08:20:33.278Z,25.30
2018-08-16T08:23:01.407Z,25.90
2018-08-16T08:25:29.594Z,26.30
2018-08-16T08:27:57.709Z,26.20
2018-08-16T08:30:25.828Z,26.20
2018-08-16T08:32:53.971Z,26.20
2018-08-16T08:35:22.122Z,26.30
2018-08-16T08:38:03.135Z,26.30
2018-08-16T08:40:31.375Z,26.20
2018-08-16T08:42:59.512Z,26.20
2018-08-16T08:45:27.645Z,26.20
2018-08-16T08:47:55.761Z,26.20
2018-08-16T08:50:24.488Z,26.30
2018-08-16T08:52:52.610Z,26.50
2018-08-16T08:55:32.429Z,26.70
2018-08-16T08:58:12.208Z,27.00
2018-08-16T09:00:40.700Z,27.20
2018-08-16T09:03:08.934Z,27.50
2018-08-16T09:05:37.508Z,27.80
2018-08-16T09:08:06.245Z,28.00
2018-08-16T09:10:56.295Z,27.90
2018-08-16T09:13:36.803Z,28.20
2018-08-16T09:16:07.911Z,28.40
2018-08-16T09:18:36.367Z,28.50
2018-08-16T09:21:04.838Z,28.60
2018-08-16T09:23:33.252Z,28.60
2018-08-16T09:26:05.985Z,28.70
2018-08-16T09:28:34.633Z,28.90
2018-08-16T09:31:14.158Z,29.00
2018-08-16T09:33:53.785Z,28.90
2018-08-16T09:36:21.918Z,28.80
2018-08-16T09:38:50.158Z,28.90
2018-08-16T09:41:18.293Z,28.90
2018-08-16T09:43:46.460Z,28.90
2018-08-16T09:46:52.592Z,29.20
2018-08-16T09:49:20.769Z,29.60
2018-08-16T09:51:48.979Z,30.00
2018-08-16T09:54:17.057Z,30.20
2018-08-16T09:56:45.971Z,30.40
2018-08-16T09:59:14.265Z,30.60
2018-08-16T10:01:42.457Z,30.60
2018-08-16T10:04:10.901Z,30.70
2018-08-16T10:06:40.221Z,30.80
2018-08-16T10:09:10.126Z,31.10
2018-08-16T10:11:38.626Z,31.00
2018-08-16T10:14:07.145Z,31.10
2018-08-16T10:16:36.310Z,31.20
2018-08-16T10:19:04.937Z,31.30
2018-08-16T10:21:33.450Z,31.40
2018-08-16T10:24:01.991Z,31.50
2018-08-16T10:26:30.208Z,31.60
2018-08-16T10:28:58.329Z,31.70
2018-08-16T10:31:26.489Z,31.80
2018-08-16T10:33:54.727Z,31.80
2018-08-16T10:36:22.858Z,31.80
2018-08-16T10:38:51.311Z,31.90
2018-08-16T10:41:19.520Z,31.90
2018-08-16T10:43:47.721Z,31.90
2018-08-16T10:46:16.359Z,31.90
2018-08-16T10:48:44.738Z,31.90
2018-08-16T10:51:13.478Z,31.90
2018-08-16T10:53:41.738Z,31.70
2018-08-16T10:56:10.268Z,31.70
2018-08-16T10:58:38.791Z,31.90
2018-08-16T11:01:07.302Z,32.00
2018-08-16T11:03:35.499Z,32.00
2018-08-16T11:06:04.216Z,32.00
2018-08-16T11:08:32.499Z,32.10
2018-08-16T11:11:00.693Z,32.10
2018-08-16T11:13:28.846Z,32.10
2018-08-16T11:15:56.998Z,32.20
2018-08-16T11:18:25.125Z,32.30
2018-08-16T11:20:53.287Z,32.30
2018-08-16T11:23:21.436Z,32.20
2018-08-16T11:25:49.578Z,32.30
2018-08-16T11:28:17.738Z,32.10
2018-08-16T11:30:46.116Z,31.80
2018-08-16T11:33:14.782Z,31.90
2018-08-16T11:35:43.524Z,31.90
2018-08-16T11:38:11.682Z,32.00
2018-08-16T11:40:39.941Z,32.10
2018-08-16T11:43:08.183Z,32.30
2018-08-16T11:45:36.341Z,32.30
2018-08-16T11:48:04.633Z,32.40
2018-08-16T11:50:32.806Z,32.30
2018-08-16T11:53:00.950Z,32.10
2018-08-16T11:55:29.066Z,32.00
2018-08-16T11:57:57.238Z,32.10
2018-08-16T12:00:25.822Z,32.30
2018-08-16T12:02:53.957Z,32.40
2018-08-16T12:05:22.093Z,32.50
2018-08-16T12:07:50.227Z,32.60
2018-08-16T12:10:18.358Z,32.70
2018-08-16T12:12:47.423Z,32.60
2018-08-16T12:15:16.157Z,32.60
2018-08-16T12:17:44.282Z,32.40
2018-08-16T12:20:12.414Z,32.20
2018-08-16T12:22:40.574Z,31.60
2018-08-16T12:25:09.064Z,31.00
2018-08-16T12:27:37.245Z,30.90
2018-08-16T12:30:07.778Z,31.20
2018-08-16T12:32:35.945Z,31.50
2018-08-16T12:35:04.845Z,31.80
2018-08-16T12:37:32.971Z,32.10
2018-08-16T12:40:01.117Z,32.00
2018-08-16T12:42:29.265Z,32.10
2018-08-16T12:44:57.460Z,32.30
2018-08-16T12:47:25.675Z,32.30
2018-08-16T12:49:53.744Z,32.10
2018-08-16T12:52:21.878Z,31.70
2018-08-16T12:54:50.361Z,31.50
2018-08-16T12:57:18.637Z,31.60
2018-08-16T12:59:46.768Z,31.50
2018-08-16T13:02:14.929Z,31.50
2018-08-16T13:04:44.005Z,31.70
2018-08-16T13:07:13.185Z,31.90
2018-08-16T13:09:42.003Z,31.90
2018-08-16T13:12:10.766Z,32.10
2018-08-16T13:14:38.994Z,32.30
2018-08-16T13:17:07.181Z,32.30
2018-08-16T13:19:35.378Z,32.20
2018-08-16T13:22:04.626Z,31.90
2018-08-16T13:24:32.769Z,31.80
2018-08-16T13:27:00.901Z,31.80
2018-08-16T13:29:29.080Z,31.60
2018-08-16T13:31:57.223Z,31.70
2018-08-16T13:34:25.380Z,31.90
2018-08-16T13:36:53.500Z,32.10
2018-08-16T13:39:21.643Z,32.20
2018-08-16T13:41:49.789Z,32.30
2018-08-16T13:44:17.935Z,32.30
2018-08-16T13:46:46.095Z,32.40
2018-08-16T13:49:14.233Z,32.40
2018-08-16T13:51:42.432Z,32.60
2018-08-16T13:54:10.579Z,32.60
2018-08-16T13:56:38.755Z,32.60
2018-08-16T13:59:06.940Z,32.70
2018-08-16T14:01:35.170Z,32.60
2018-08-16T14:04:03.697Z,32.70
2018-08-16T14:06:31.826Z,32.60
2018-08-16T14:08:59.960Z,32.10
2018-08-16T14:11:28.089Z,32.00
2018-08-16T14:13:56.228Z,32.10
2018-08-16T14:16:24.358Z,31.90
2018-08-16T14:18:52.483Z,31.80
2018-08-16T14:21:20.618Z,31.90
2018-08-16T14:23:48.756Z,32.00
2018-08-16T14:26:16.893Z,32.10
2018-08-16T14:28:45.027Z,32.30
2018-08-16T14:31:13.182Z,32.30
2018-08-16T14:33:41.327Z,32.30
2018-08-16T14:36:09.473Z,32.20
2018-08-16T14:38:37.673Z,32.10
2018-08-16T14:41:06.875Z,32.00
2018-08-16T14:43:36.415Z,32.00
2018-08-16T14:46:05.991Z,32.00
2018-08-16T14:48:35.380Z,32.00
2018-08-16T14:51:03.619Z,32.10
2018-08-16T14:53:31.748Z,32.00
2018-08-16T14:55:59.882Z,32.00
2018-08-16T14:58:28.026Z,32.10
2018-08-16T15:00:56.196Z,32.10
2018-08-16T15:03:24.354Z,32.20
2018-08-16T15:05:52.494Z,32.30
2018-08-16T15:08:20.640Z,32.30
2018-08-16T15:10:48.821Z,32.30
2018-08-16T15:13:16.946Z,32.30
2018-08-16T15:15:45.847Z,32.30
2018-08-16T15:18:14.979Z,32.30
2018-08-16T15:20:44.127Z,32.30
2018-08-16T15:23:12.310Z,32.20
2018-08-16T15:25:40.902Z,32.10
2018-08-16T15:28:09.092Z,32.00
2018-08-16T15:30:37.250Z,31.90
2018-08-16T15:33:05.488Z,31.90
2018-08-16T15:35:33.612Z,31.90
2018-08-16T15:38:01.758Z,31.90
2018-08-16T15:40:29.938Z,31.90
2018-08-16T15:42:58.105Z,31.80
2018-08-16T15:45:26.230Z,31.80
2018-08-16T15:47:54.384Z,31.60
2018-08-16T15:50:22.533Z,31.50
2018-08-16T15:52:50.742Z,31.50
2018-08-16T15:55:18.928Z,31.50
2018-08-16T15:57:47.070Z,31.40
2018-08-16T16:00:15.209Z,31.30
2018-08-16T16:02:43.904Z,31.30
2018-08-16T16:05:12.908Z,31.30
2018-08-16T16:07:41.138Z,31.30
2018-08-16T16:10:09.681Z,31.30
2018-08-16T16:12:37.868Z,31.20
2018-08-16T16:15:07.515Z,31.10
2018-08-16T16:17:37.095Z,31.00
2018-08-16T16:20:07.861Z,30.90
2018-08-16T16:22:39.387Z,30.70
2018-08-16T16:25:09.822Z,30.80
2018-08-16T16:27:37.990Z,30.90
2018-08-16T16:30:07.652Z,30.70
2018-08-16T16:32:35.815Z,30.70
2018-08-16T16:35:03.993Z,30.60
2018-08-16T16:37:32.134Z,30.70
2018-08-16T16:40:00.316Z,30.70
2018-08-16T16:42:28.442Z,30.70
2018-08-16T16:44:56.630Z,30.60
2018-08-16T16:47:24.693Z,30.50
2018-08-16T16:49:52.875Z,30.60
2018-08-16T16:52:20.981Z,30.50
2018-08-16T16:54:49.121Z,30.40
2018-08-16T16:57:17.238Z,30.40
2018-08-16T16:59:45.418Z,30.40
2018-08-16T17:02:13.847Z,30.20
2018-08-16T17:04:42.363Z,30.10
2018-08-16T17:07:10.573Z,30.00
2018-08-16T17:09:38.644Z,30.00
2018-08-16T17:12:07.406Z,30.00
2018-08-16T17:14:35.591Z,29.90
2018-08-16T17:17:03.738Z,29.90
2018-08-16T17:19:31.866Z,29.90
2018-08-16T17:22:00.052Z,29.80
2018-08-16T17:24:28.186Z,29.70
2018-08-16T17:26:56.305Z,29.60
2018-08-16T17:29:24.439Z,29.60
2018-08-16T17:31:52.549Z,29.50
2018-08-16T17:34:20.932Z,29.50
2018-08-16T17:36:49.165Z,29.50
2018-08-16T17:39:17.351Z,29.50
2018-08-16T17:41:45.556Z,29.50
2018-08-16T17:44:13.940Z,29.40
2018-08-16T17:46:42.353Z,29.40
2018-08-16T17:49:10.863Z,29.40
2018-08-16T17:51:39.460Z,29.30
2018-08-16T17:54:07.735Z,29.20
2018-08-16T17:56:37.076Z,29.10
2018-08-16T17:59:05.606Z,29.00
2018-08-16T18:01:36.141Z,29.10
2018-08-16T18:04:04.736Z,29.00
2018-08-16T18:06:33.159Z,28.90
2018-08-16T18:09:01.626Z,28.80
2018-08-16T18:11:29.781Z,28.80
2018-08-16T18:13:57.921Z,28.60
2018-08-16T18:16:26.241Z,28.60
2018-08-16T18:18:54.389Z,28.50
2018-08-16T18:21:22.524Z,28.50
2018-08-16T18:23:50.639Z,28.30
2018-08-16T18:26:18.784Z,28.10
2018-08-16T18:28:46.924Z,28.00
2018-08-16T18:31:15.491Z,27.90
2018-08-16T18:33:43.788Z,27.90
2018-08-16T18:36:12.156Z,27.80
2018-08-16T18:38:40.555Z,27.70
2018-08-16T18:41:09.456Z,27.60
2018-08-16T18:43:38.128Z,27.50
2018-08-16T18:46:06.912Z,27.40
2018-08-16T18:48:35.547Z,27.40
2018-08-16T18:51:04.509Z,27.20
2018-08-16T18:53:33.624Z,27.10
2018-08-16T18:56:02.263Z,27.00
2018-08-16T18:58:30.505Z,26.90
2018-08-16T19:00:58.665Z,26.90
2018-08-16T19:03:26.789Z,26.80
2018-08-16T19:05:54.930Z,26.70
2018-08-16T19:08:23.094Z,26.60
2018-08-16T19:10:51.209Z,26.40
2018-08-16T19:13:19.450Z,26.30
2018-08-16T19:15:47.506Z,26.10
2018-08-16T19:18:15.626Z,26.10
2018-08-16T19:20:44.081Z,25.90
2018-08-16T19:23:12.576Z,25.80
2018-08-16T19:25:40.973Z,25.70
2018-08-16T19:28:09.476Z,25.70
2018-08-16T19:30:37.886Z,25.50
2018-08-16T19:33:13.686Z,25.40
2018-08-16T19:35:41.917Z,25.30
2018-08-16T19:38:10.071Z,25.20
2018-08-16T19:40:38.243Z,25.10
2018-08-16T19:43:06.385Z,25.00
2018-08-16T19:45:34.600Z,24.80
2018-08-16T19:48:03.103Z,24.90
2018-08-16T19:50:31.312Z,24.70
2018-08-16T19:52:59.505Z,24.60
2018-08-16T19:55:28.452Z,24.60
2018-08-16T19:57:56.613Z,24.40
2018-08-16T20:00:24.805Z,24.40
2018-08-16T20:02:53.028Z,24.40
2018-08-16T20:05:21.171Z,24.30
2018-08-16T20:07:49.597Z,24.10
2018-08-16T20:10:17.775Z,24.00
2018-08-16T20:12:45.993Z,23.90
2018-08-16T20:15:14.847Z,23.90
2018-08-16T20:17:44.361Z,23.90
2018-08-16T20:20:14.265Z,23.80
2018-08-16T20:22:43.274Z,23.80
2018-08-16T20:25:11.497Z,23.80
2018-08-16T20:27:41.432Z,23.70
2018-08-16T20:30:11.519Z,23.60
2018-08-16T20:32:41.426Z,23.40
2018-08-16T20:35:09.693Z,23.30
2018-08-16T20:37:37.921Z,23.30
2018-08-16T20:40:06.421Z,23.20
2018-08-16T20:42:34.607Z,23.10
2018-08-16T20:45:02.819Z,23.10
2018-08-16T20:47:31.069Z,22.90
2018-08-16T20:49:59.773Z,22.80
2018-08-16T20:52:27.918Z,22.80
2018-08-16T20:54:56.084Z,22.70
2018-08-16T20:57:24.264Z,22.80
2018-08-16T20:59:52.397Z,22.80
2018-08-16T21:02:20.544Z,22.70
2018-08-16T21:04:48.721Z,22.60
2018-08-16T21:07:16.892Z,22.50
2018-08-16T21:09:45.640Z,22.50
2018-08-16T21:12:15.233Z,22.40
2018-08-16T21:14:44.581Z,22.40
2018-08-16T21:17:13.637Z,22.40
2018-08-16T21:19:43.624Z,22.30
2018-08-16T21:22:13.351Z,22.20
2018-08-16T21:24:42.596Z,22.10
2018-08-16T21:27:11.054Z,22.10
2018-08-16T21:29:42.491Z,22.00
2018-08-16T21:32:13.789Z,22.00
2018-08-16T21:34:44.281Z,21.80
2018-08-16T21:37:13.848Z,21.90
2018-08-16T21:39:44.592Z,21.80
2018-08-16T21:42:14.833Z,21.70
2018-08-16T21:44:43.302Z,21.60
2018-08-16T21:47:11.654Z,21.60
2018-08-16T21:49:40.272Z,21.50
2018-08-16T21:52:09.474Z,21.40
2018-08-16T21:54:39.080Z,21.40
2018-08-16T21:57:07.869Z,21.40
2018-08-16T21:59:36.964Z,21.30
2018-08-16T22:02:12.262Z,21.10
2018-08-16T22:04:41.036Z,21.00
2018-08-16T22:07:15.431Z,20.80
2018-08-16T22:09:44.006Z,20.70
2018-08-16T22:12:12.451Z,20.70
2018-08-16T22:14:41.209Z,20.70
2018-08-16T22:17:09.963Z,20.60
2018-08-16T22:19:38.710Z,20.60
2018-08-16T22:22:07.451Z,20.60
2018-08-16T22:24:36.177Z,20.50
2018-08-16T22:27:04.650Z,20.50
2018-08-16T22:29:33.207Z,20.50
2018-08-16T22:32:01.550Z,20.50
2018-08-16T22:34:29.838Z,20.40
2018-08-16T22:36:58.186Z,20.40
2018-08-16T22:39:26.552Z,20.40
2018-08-16T22:41:54.862Z,20.60
2018-08-16T22:44:23.271Z,20.60
2018-08-16T22:46:51.617Z,20.60
2018-08-16T22:49:19.865Z,20.50
2018-08-16T22:51:48.221Z,20.60
2018-08-16T22:54:16.525Z,20.60
2018-08-16T22:56:44.891Z,20.50
2018-08-16T22:59:13.481Z,20.40
2018-08-16T23:01:42.625Z,20.40
2018-08-16T23:04:11.271Z,20.40
2018-08-16T23:06:39.799Z,20.30
2018-08-16T23:09:08.337Z,20.30
2018-08-16T23:11:36.695Z,20.30
2018-08-16T23:14:05.104Z,20.10
2018-08-16T23:16:33.545Z,20.10
2018-08-16T23:19:02.013Z,20.00
2018-08-16T23:21:30.422Z,20.00
2018-08-16T23:23:58.806Z,20.10
2018-08-16T23:26:27.161Z,20.00
2018-08-16T23:28:55.462Z,19.90
2018-08-16T23:31:23.833Z,19.90
2018-08-16T23:33:52.173Z,19.80
2018-08-16T23:36:20.517Z,19.80
2018-08-16T23:38:48.807Z,19.80
2018-08-16T23:41:17.148Z,19.80
2018-08-16T23:43:45.737Z,19.70
2018-08-16T23:46:14.132Z,19.70
2018-08-16T23:48:42.432Z,19.70
2018-08-16T23:51:11.075Z,19.70
2018-08-16T23:53:39.606Z,19.70
2018-08-16T23:56:07.954Z,19.60
2018-08-16T23:58:36.413Z,19.60
